Time;durP1;ratioP1;P1;durP2;ratioP2;P2;SDS_P1;SDS_P2;PMS_P1;PMS_P2;Temp;Humidity;BMP_temperature;BMP_pressure;BME280_temperature;BME280_humidity;BME280_pressure;Samples;Min_cycle;Max_cycle;Signal;HPM_P1;HPM_P2
2021/08/30 00:01:59;;;;;;;11.50;3.72;;;14.20;99.90;;;;;;5108859;28;20048;-80
2021/08/30 00:04:26;;;;;;;6.63;3.17;;;14.10;99.90;;;;;;5102301;28;20053;-78
2021/08/30 00:06:53;;;;;;;4.05;3.15;;;14.10;99.90;;;;;;5080988;28;20054;-82
2021/08/30 00:09:21;;;;;;;5.40;3.35;;;14.10;99.90;;;;;;5077391;28;20043;-79
2021/08/30 00:11:48;;;;;;;7.80;3.55;;;14.10;99.90;;;;;;5092733;28;20052;-81
2021/08/30 00:14:16;;;;;;;4.82;3.67;;;14.10;99.90;;;;;;5078847;28;20443;-82
2021/08/30 00:16:46;;;;;;;4.85;3.13;;;14.00;99.90;;;;;;5080679;28;20063;-80
2021/08/30 00:19:13;;;;;;;6.38;3.13;;;14.00;99.90;;;;;;5079769;28;20047;-78
2021/08/30 00:21:40;;;;;;;5.15;3.42;;;14.00;99.90;;;;;;5080201;28;20101;-81
2021/08/30 00:24:07;;;;;;;7.15;3.63;;;14.00;99.90;;;;;;5108460;28;20052;-81
2021/08/30 00:26:34;;;;;;;6.57;3.67;;;14.00;99.90;;;;;;5076372;28;20056;-80
2021/08/30 00:29:01;;;;;;;4.10;2.97;;;14.00;99.90;;;;;;5080309;28;20041;-81
2021/08/30 00:31:28;;;;;;;5.65;3.67;;;14.00;99.90;;;;;;5081429;28;20044;-79
2021/08/30 00:33:55;;;;;;;4.90;3.42;;;14.00;99.90;;;;;;5106486;28;20048;-81
2021/08/30 00:36:25;;;;;;;5.68;3.47;;;13.90;99.90;;;;;;5076691;28;20051;-81
2021/08/30 00:38:54;;;;;;;5.20;3.42;;;13.90;99.90;;;;;;5108885;28;20051;-81
2021/08/30 00:41:23;;;;;;;7.30;3.58;;;13.90;99.90;;;;;;5089560;28;20048;-79
2021/08/30 00:43:50;;;;;;;5.30;3.13;;;13.90;99.90;;;;;;5098852;28;20048;-80
2021/08/30 00:46:17;;;;;;;6.47;3.90;;;13.90;99.90;;;;;;5079361;28;20040;-81
2021/08/30 00:48:47;;;;;;;6.22;3.65;;;13.90;99.90;;;;;;5080025;28;20050;-82
2021/08/30 00:51:15;;;;;;;8.95;3.97;;;13.90;99.90;;;;;;5075664;28;20060;-80
2021/08/30 00:53:50;;;;;;;7.18;3.78;;;13.90;99.90;;;;;;5092230;28;20048;-78
2021/08/30 00:56:17;;;;;;;5.93;3.70;;;13.90;99.90;;;;;;5090651;28;20056;-80
2021/08/30 00:58:45;;;;;;;6.03;3.65;;;13.80;99.90;;;;;;5097266;28;20056;-79
2021/08/30 01:01:12;;;;;;;7.63;4.00;;;13.80;99.90;;;;;;5079125;28;20040;-81
2021/08/30 01:03:40;;;;;;;6.78;3.90;;;13.80;99.90;;;;;;5079703;28;20067;-82
2021/08/30 01:06:44;;;;;;;6.05;3.90;;;13.80;99.90;;;;;;5091393;28;20047;-81
2021/08/30 01:09:28;;;;;;;9.85;3.92;;;13.80;99.90;;;;;;5016545;28;20514;-80
2021/08/30 01:12:07;;;;;;;7.93;4.20;;;13.70;99.90;;;;;;5033605;28;20060;-78
2021/08/30 01:14:43;;;;;;;6.25;4.18;;;13.70;99.90;;;;;;5028729;28;20056;-81
2021/08/30 01:17:11;;;;;;;9.13;4.20;;;13.70;99.90;;;;;;5048654;28;20045;-79
2021/08/30 01:19:43;;;;;;;7.87;4.13;;;13.70;99.90;;;;;;5025673;28;20041;-81
2021/08/30 01:22:12;;;;;;;8.25;3.78;;;13.70;99.90;;;;;;5020488;28;20060;-78
2021/08/30 01:24:39;;;;;;;10.25;4.22;;;13.70;99.90;;;;;;5048645;28;20045;-80
2021/08/30 01:27:06;;;;;;;7.70;4.38;;;13.60;99.90;;;;;;5016363;28;20421;-81
2021/08/30 01:29:36;;;;;;;9.98;4.47;;;13.60;99.90;;;;;;5049828;28;20041;-79
2021/08/30 01:32:10;;;;;;;6.72;4.20;;;13.60;99.90;;;;;;5037043;28;20046;-80
2021/08/30 01:34:40;;;;;;;8.98;4.55;;;13.60;99.90;;;;;;5037117;28;20053;-80
2021/08/30 01:37:07;;;;;;;7.10;4.38;;;13.60;99.90;;;;;;5040367;28;20088;-80
2021/08/30 01:39:35;;;;;;;6.70;4.10;;;13.60;99.90;;;;;;5032679;28;20079;-81
2021/08/30 01:42:02;;;;;;;8.02;4.50;;;13.50;99.90;;;;;;5017575;28;20048;-79
2021/08/30 01:44:30;;;;;;;8.52;4.40;;;13.50;99.90;;;;;;5075497;28;20045;-80
2021/08/30 01:46:57;;;;;;;8.25;4.32;;;13.50;99.90;;;;;;5078863;28;20469;-80
2021/08/30 01:49:26;;;;;;;6.53;4.30;;;13.50;99.90;;;;;;5077982;28;20049;-79
2021/08/30 01:51:55;;;;;;;9.48;4.93;;;13.50;99.90;;;;;;5078705;28;20048;-79
2021/08/30 01:54:23;;;;;;;10.00;5.10;;;13.40;99.90;;;;;;5075659;28;20075;-79
2021/08/30 01:56:54;;;;;;;5.72;4.43;;;13.40;99.90;;;;;;5106019;28;20052;-80
2021/08/30 02:02:09;;;;;;;8.35;5.25;;;13.40;99.90;;;;;;5091081;28;20052;-80
2021/08/30 02:04:37;;;;;;;9.57;5.40;;;13.40;99.90;;;;;;5099284;28;20048;-80
2021/08/30 02:07:06;;;;;;;9.77;4.63;;;13.40;99.90;;;;;;5077816;28;20048;-78
2021/08/30 02:09:33;;;;;;;6.78;4.57;;;13.40;99.90;;;;;;5077320;28;20282;-80
2021/08/30 02:12:00;;;;;;;10.18;5.38;;;13.40;99.90;;;;;;5090588;28;20052;-80
2021/08/30 02:14:27;;;;;;;7.10;4.85;;;13.30;99.90;;;;;;5075329;28;20053;-79
2021/08/30 02:16:58;;;;;;;10.90;5.60;;;13.30;99.90;;;;;;5078487;28;20048;-80
2021/08/30 02:19:34;;;;;;;7.22;5.38;;;13.30;99.90;;;;;;5077856;28;20047;-79
2021/08/30 02:22:11;;;;;;;9.70;5.22;;;13.30;99.90;;;;;;5078845;28;20044;-79
2021/08/30 02:24:39;;;;;;;9.15;5.65;;;13.30;99.90;;;;;;5080700;28;20625;-78
2021/08/30 02:27:25;;;;;;;9.23;5.30;;;13.30;99.90;;;;;;5069306;28;20055;-79
2021/08/30 02:29:58;;;;;;;13.52;6.28;;;13.30;99.90;;;;;;5083160;28;20055;-80
2021/08/30 02:32:27;;;;;;;9.27;5.75;;;13.20;99.90;;;;;;5058719;28;20045;-79
2021/08/30 02:34:56;;;;;;;9.60;5.57;;;13.20;99.90;;;;;;5080237;28;20048;-81
2021/08/30 02:37:25;;;;;;;9.45;5.75;;;13.20;99.90;;;;;;5097826;28;20362;-80
2021/08/30 02:39:54;;;;;;;9.18;6.10;;;13.20;99.90;;;;;;5080626;28;20037;-80
2021/08/30 02:42:21;;;;;;;10.52;5.57;;;13.20;99.90;;;;;;5077948;28;20430;-80
2021/08/30 02:44:48;;;;;;;12.60;6.10;;;13.20;99.90;;;;;;5094697;28;20048;-80
2021/08/30 02:47:18;;;;;;;9.45;6.20;;;13.20;99.90;;;;;;5080200;28;20059;-78
2021/08/30 02:49:46;;;;;;;9.63;5.28;;;13.20;99.90;;;;;;5081668;28;20045;-79
2021/08/30 02:52:15;;;;;;;7.38;5.57;;;13.10;99.90;;;;;;5081696;28;20472;-80
2021/08/30 02:54:44;;;;;;;10.07;6.03;;;13.10;99.90;;;;;;5082743;28;20044;-79
2021/08/30 02:57:13;;;;;;;8.68;5.75;;;13.20;99.90;;;;;;5109580;28;20036;-80
2021/08/30 02:59:41;;;;;;;9.27;6.13;;;13.10;99.90;;;;;;5111168;28;20054;-80
2021/08/30 03:02:09;;;;;;;8.77;5.93;;;13.10;99.90;;;;;;5107531;28;20055;-80
2021/08/30 03:04:37;;;;;;;9.50;5.80;;;13.10;99.90;;;;;;5102388;28;20544;-79
2021/08/30 03:07:04;;;;;;;10.85;5.95;;;13.10;99.90;;;;;;5081168;28;20579;-76
2021/08/30 03:09:31;;;;;;;12.00;6.18;;;13.10;99.90;;;;;;5080806;28;20590;-79
2021/08/30 03:12:00;;;;;;;8.73;5.82;;;13.10;99.90;;;;;;5093798;28;20052;-80
2021/08/30 03:14:28;;;;;;;9.30;6.28;;;13.10;99.90;;;;;;5093330;28;20380;-78
2021/08/30 03:16:59;;;;;;;9.05;6.32;;;13.10;99.90;;;;;;5110186;28;20043;-78
2021/08/30 03:19:28;;;;;;;11.05;6.20;;;13.10;99.90;;;;;;5102953;28;20044;-79
2021/08/30 03:21:55;;;;;;;;;;;13.00;99.90;;;;;;5082175;28;20063;-79
2021/08/30 03:24:23;;;;;;;17.83;8.35;;;13.00;99.90;;;;;;5095330;28;19927;-77
2021/08/30 03:26:53;;;;;;;8.23;6.18;;;13.00;99.90;;;;;;5093345;28;20063;-80
2021/08/30 03:29:21;;;;;;;9.95;5.93;;;13.00;99.90;;;;;;5107903;28;20453;-80
2021/08/30 03:31:50;;;;;;;12.23;6.55;;;13.00;99.90;;;;;;5100352;28;20445;-79
2021/08/30 03:34:20;;;;;;;12.05;6.90;;;13.00;99.90;;;;;;5080726;28;20043;-81
2021/08/30 03:36:48;;;;;;;11.27;6.15;;;13.00;99.90;;;;;;5081294;28;20384;-78
2021/08/30 03:39:18;;;;;;;13.60;6.60;;;13.00;99.90;;;;;;5076831;28;20040;-79
2021/08/30 03:41:48;;;;;;;10.05;6.05;;;13.00;99.90;;;;;;5093466;28;20404;-80
2021/08/30 03:44:17;;;;;;;9.27;6.13;;;13.00;99.90;;;;;;5079178;28;20054;-81
2021/08/30 03:46:45;;;;;;;11.35;6.68;;;13.00;99.90;;;;;;5081036;28;20048;-80
2021/08/30 03:49:12;;;;;;;11.73;5.72;;;13.00;99.90;;;;;;5080144;28;20045;-80
2021/08/30 03:51:41;;;;;;;13.38;6.65;;;12.90;99.90;;;;;;5081006;28;20392;-79
2021/08/30 03:54:09;;;;;;;11.68;6.53;;;12.90;99.90;;;;;;5075457;28;20044;-79
2021/08/30 03:56:39;;;;;;;12.07;6.38;;;12.90;99.90;;;;;;5099011;28;20041;-79
2021/08/30 03:59:06;;;;;;;9.10;6.32;;;12.90;99.90;;;;;;5072055;28;20049;-79
2021/08/30 04:01:33;;;;;;;10.25;6.85;;;12.90;99.90;;;;;;5094822;28;20370;-79
2021/08/30 04:04:05;;;;;;;11.40;6.55;;;12.90;99.90;;;;;;5063761;28;20084;-78
2021/08/30 04:06:33;;;;;;;12.00;6.47;;;12.90;99.90;;;;;;5063997;28;20044;-78
2021/08/30 04:09:01;;;;;;;16.10;6.95;;;12.90;99.90;;;;;;5076796;28;20063;-79
2021/08/30 04:11:28;;;;;;;9.85;6.28;;;12.90;99.90;;;;;;5068935;28;20052;-79
2021/08/30 04:13:55;;;;;;;10.50;6.88;;;12.90;99.90;;;;;;5080848;28;20045;-80
2021/08/30 04:16:22;;;;;;;14.82;8.60;;;12.90;99.90;;;;;;5080028;28;20044;-77
2021/08/30 04:18:49;;;;;;;10.80;6.40;;;12.90;99.90;;;;;;5065963;28;20040;-80
2021/08/30 04:21:17;;;;;;;8.13;6.47;;;12.80;99.90;;;;;;5056558;28;20048;-79
2021/08/30 04:23:43;;;;;;;12.88;7.40;;;12.90;99.90;;;;;;5055871;28;20051;-79
2021/08/30 04:26:10;;;;;;;12.10;6.38;;;12.80;99.90;;;;;;5086862;28;20048;-80
2021/08/30 04:28:37;;;;;;;11.38;6.57;;;12.80;99.90;;;;;;5079977;28;20048;-80
2021/08/30 04:31:04;;;;;;;19.38;8.43;;;12.80;99.90;;;;;;5067545;28;20041;-81
2021/08/30 04:33:32;;;;;;;8.60;5.88;;;12.80;99.90;;;;;;5066913;28;20044;-80
2021/08/30 04:35:59;;;;;;;14.65;6.85;;;12.80;99.90;;;;;;5088390;28;20055;-80
2021/08/30 04:38:26;;;;;;;10.20;6.65;;;12.80;99.90;;;;;;5068248;28;20051;-80
2021/08/30 04:40:53;;;;;;;13.07;6.70;;;12.80;99.90;;;;;;5071142;28;20393;-79
2021/08/30 04:43:20;;;;;;;12.55;7.22;;;12.80;99.90;;;;;;5079394;28;20040;-80
2021/08/30 04:45:47;;;;;;;9.02;6.60;;;12.90;99.90;;;;;;5080187;28;20055;-80
2021/08/30 04:48:14;;;;;;;12.65;6.75;;;12.80;99.90;;;;;;5057250;28;20383;-79
2021/08/30 04:50:41;;;;;;;10.75;7.00;;;12.80;99.90;;;;;;5055580;28;20445;-81
2021/08/30 04:53:08;;;;;;;11.02;7.18;;;12.80;99.90;;;;;;5075329;28;20048;-81
2021/08/30 04:55:36;;;;;;;11.90;6.95;;;12.80;99.90;;;;;;5068334;28;20053;-80
2021/08/30 04:58:04;;;;;;;15.40;6.80;;;12.80;99.90;;;;;;5091527;28;20037;-80
2021/08/30 05:00:31;;;;;;;11.43;6.93;;;12.80;99.90;;;;;;5069240;28;20476;-78
2021/08/30 05:03:00;;;;;;;17.17;6.82;;;12.80;99.90;;;;;;5058780;28;20075;-80
2021/08/30 05:05:27;;;;;;;13.27;6.93;;;12.70;99.90;;;;;;5061210;28;20118;-76
2021/08/30 05:07:54;;;;;;;11.60;6.85;;;12.80;99.90;;;;;;5089157;28;20040;-79
2021/08/30 05:10:21;;;;;;;11.45;6.55;;;12.70;99.90;;;;;;5107299;28;20051;-79
2021/08/30 05:12:48;;;;;;;14.73;6.82;;;12.80;99.90;;;;;;5107777;28;20052;-79
2021/08/30 05:15:15;;;;;;;11.40;7.18;;;12.70;99.90;;;;;;5107344;28;20194;-80
2021/08/30 05:17:43;;;;;;;13.02;7.25;;;12.70;99.90;;;;;;5077757;28;20465;-80
2021/08/30 05:20:10;;;;;;;13.23;6.80;;;12.70;99.90;;;;;;5067072;28;20548;-80
2021/08/30 05:22:37;;;;;;;12.90;7.03;;;12.70;99.90;;;;;;5078944;28;20051;-79
2021/08/30 05:25:04;;;;;;;19.20;8.70;;;12.70;99.90;;;;;;5078723;28;20052;-79
2021/08/30 05:27:31;;;;;;;14.60;7.88;;;12.70;99.90;;;;;;5069984;28;20048;-79
2021/08/30 05:29:58;;;;;;;12.25;6.88;;;12.70;99.90;;;;;;5086598;28;20044;-77
2021/08/30 05:32:25;;;;;;;10.48;6.85;;;12.70;99.90;;;;;;5082985;28;20460;-78
2021/08/30 05:34:52;;;;;;;12.93;6.35;;;12.70;99.90;;;;;;5077251;28;20049;-79
2021/08/30 05:37:19;;;;;;;15.27;6.80;;;12.70;99.90;;;;;;5066570;28;20048;-79
2021/08/30 05:39:46;;;;;;;14.90;6.63;;;12.70;99.90;;;;;;5065115;28;20056;-77
2021/08/30 05:42:13;;;;;;;15.52;8.20;;;12.70;99.90;;;;;;5056709;28;20045;-79
2021/08/30 05:44:40;;;;;;;15.18;6.78;;;12.70;99.90;;;;;;5087528;28;20056;-80
2021/08/30 05:47:07;;;;;;;20.27;8.73;;;12.70;99.90;;;;;;5069213;28;20493;-78
2021/08/30 05:49:34;;;;;;;13.50;7.22;;;12.80;99.90;;;;;;5073602;28;20051;-79
2021/08/30 05:52:01;;;;;;;17.88;9.10;;;12.80;99.90;;;;;;5070164;28;20048;-78
2021/08/30 05:54:31;;;;;;;14.45;6.80;;;12.80;99.90;;;;;;5069704;28;20055;-79
2021/08/30 05:56:57;;;;;;;11.48;7.13;;;12.80;99.90;;;;;;5070061;28;20499;-79
2021/08/30 05:59:25;;;;;;;10.00;6.30;;;12.80;99.90;;;;;;5070007;28;20056;-79
2021/08/30 06:01:51;;;;;;;12.15;6.72;;;12.80;99.90;;;;;;5069975;28;20053;-75
2021/08/30 06:04:19;;;;;;;14.27;7.15;;;12.80;99.90;;;;;;5086008;28;20044;-79
2021/08/30 06:06:57;;;;;;;16.67;7.82;;;12.90;99.90;;;;;;5069998;28;20049;-80
2021/08/30 06:09:24;;;;;;;11.90;6.78;;;12.90;99.90;;;;;;5069185;28;20488;-80
2021/08/30 06:11:51;;;;;;;13.45;6.70;;;12.90;99.90;;;;;;5070073;28;20048;-79
2021/08/30 06:14:18;;;;;;;14.73;7.00;;;13.00;99.90;;;;;;5069794;28;20106;-80
2021/08/30 06:16:45;;;;;;;12.80;7.78;;;13.00;99.90;;;;;;5069598;28;20504;-81
2021/08/30 06:19:12;;;;;;;10.13;6.28;;;13.10;99.90;;;;;;5068925;28;20512;-80
2021/08/30 06:21:39;;;;;;;13.45;6.32;;;13.10;99.90;;;;;;5070153;28;20045;-80
2021/08/30 06:24:07;;;;;;;10.85;6.32;;;13.10;99.90;;;;;;5069029;28;20056;-81
2021/08/30 06:26:36;;;;;;;11.02;6.20;;;13.20;99.90;;;;;;5070372;28;20051;-80
2021/08/30 06:29:04;;;;;;;11.02;6.38;;;13.20;99.90;;;;;;5069886;28;20056;-79
2021/08/30 06:31:31;;;;;;;9.73;6.53;;;13.30;99.90;;;;;;5082186;28;20044;-80
2021/08/30 06:33:59;;;;;;;13.70;6.95;;;13.30;99.90;;;;;;5078954;28;20574;-78
2021/08/30 06:36:26;;;;;;;11.55;6.00;;;13.40;99.90;;;;;;5068936;28;20477;-81
2021/08/30 06:38:53;;;;;;;10.48;5.80;;;13.40;99.90;;;;;;5069857;28;20400;-81
2021/08/30 06:41:20;;;;;;;9.80;5.95;;;13.50;99.90;;;;;;5069408;28;20052;-80
2021/08/30 06:43:47;;;;;;;12.45;6.13;;;13.60;99.90;;;;;;5069855;28;20049;-77
2021/08/30 06:46:13;;;;;;;11.23;6.22;;;13.60;99.90;;;;;;5069007;28;20044;-80
2021/08/30 06:48:40;;;;;;;11.90;5.45;;;13.70;99.90;;;;;;5069520;28;20044;-80
2021/08/30 06:51:07;;;;;;;10.68;5.80;;;13.70;99.90;;;;;;5053313;28;20053;-80
2021/08/30 06:53:34;;;;;;;11.80;6.22;;;13.80;99.90;;;;;;5070255;28;20495;-80
2021/08/30 06:56:01;;;;;;;11.38;5.63;;;13.80;99.90;;;;;;5069191;28;20056;-81
2021/08/30 06:58:28;;;;;;;12.00;5.95;;;13.90;99.90;;;;;;5068445;28;20702;-81
2021/08/30 07:00:55;;;;;;;12.52;4.95;;;14.00;99.90;;;;;;5069436;28;20049;-80
2021/08/30 07:03:23;;;;;;;11.48;5.80;;;14.10;99.90;;;;;;5068555;28;20469;-79
2021/08/30 07:05:50;;;;;;;13.07;5.38;;;14.10;99.90;;;;;;5069573;28;20049;-80
2021/08/30 07:08:19;;;;;;;12.25;4.95;;;14.20;99.90;;;;;;5069131;28;20048;-81
2021/08/30 07:10:47;;;;;;;12.10;5.75;;;14.30;99.90;;;;;;5068884;28;20070;-81
2021/08/30 07:13:14;;;;;;;10.30;5.00;;;14.40;99.90;;;;;;5067495;28;20045;-81
2021/08/30 07:15:41;;;;;;;8.20;4.18;;;14.50;99.90;;;;;;5084626;28;20045;-81
2021/08/30 07:18:08;;;;;;;7.53;4.18;;;14.60;99.90;;;;;;5078667;28;20048;-81
2021/08/30 07:20:35;;;;;;;10.40;4.43;;;14.70;99.90;;;;;;5073774;28;20063;-80
2021/08/30 07:23:02;;;;;;;11.68;4.57;;;14.80;99.90;;;;;;5069934;28;20055;-80
2021/08/30 07:25:29;;;;;;;16.35;4.28;;;14.90;99.90;;;;;;5072803;28;20044;-78
2021/08/30 07:27:56;;;;;;;10.85;4.07;;;15.00;99.90;;;;;;5081471;28;20049;-80
2021/08/30 07:30:23;;;;;;;8.23;4.25;;;15.10;99.90;;;;;;5075449;28;20075;-81
2021/08/30 07:32:50;;;;;;;10.05;3.78;;;15.20;99.90;;;;;;5064810;28;20053;-81
2021/08/30 07:35:18;;;;;;;9.30;4.03;;;15.40;99.90;;;;;;5066031;28;20094;-80
2021/08/30 07:37:45;;;;;;;12.30;4.00;;;15.50;99.90;;;;;;5069202;28;20045;-81
2021/08/30 07:40:13;;;;;;;9.05;3.63;;;15.60;99.90;;;;;;5067689;28;20059;-81
2021/08/30 07:42:40;;;;;;;10.82;3.85;;;15.70;99.90;;;;;;5069077;28;20041;-80
2021/08/30 07:45:10;;;;;;;7.88;3.42;;;15.90;99.90;;;;;;5062913;28;20514;-81
2021/08/30 07:47:37;;;;;;;10.23;3.67;;;16.00;99.90;;;;;;5066869;28;20131;-81
2021/08/30 07:50:06;;;;;;;9.68;3.35;;;16.20;99.90;;;;;;5066910;28;20485;-80
2021/08/30 07:52:33;;;;;;;9.37;3.30;;;16.30;99.90;;;;;;5064823;28;20059;-78
2021/08/30 07:55:01;;;;;;;6.85;2.95;;;16.40;99.90;;;;;;5063341;28;20041;-80
2021/08/30 07:57:28;;;;;;;12.87;3.57;;;16.50;99.90;;;;;;5055954;28;20480;-80
2021/08/30 07:59:55;;;;;;;9.25;3.20;;;16.70;99.90;;;;;;5070413;28;20792;-78
2021/08/30 08:02:22;;;;;;;6.85;2.78;;;16.80;99.90;;;;;;5073817;28;20044;-79
2021/08/30 08:04:49;;;;;;;10.95;3.50;;;17.00;99.90;;;;;;5071681;28;20105;-81
2021/08/30 08:07:17;;;;;;;11.23;3.40;;;17.10;99.90;;;;;;5067645;28;20063;-81
2021/08/30 08:09:44;;;;;;;7.57;2.90;;;17.20;99.90;;;;;;5082781;28;20048;-80
2021/08/30 08:12:11;;;;;;;10.20;3.13;;;17.30;99.90;;;;;;5065988;28;20128;-77
2021/08/30 08:14:38;;;;;;;6.95;3.15;;;17.40;99.90;;;;;;5059631;28;20050;-78
2021/08/30 08:17:05;;;;;;;8.50;2.72;;;17.60;99.90;;;;;;5055340;28;20044;-81
2021/08/30 08:19:33;;;;;;;6.43;3.00;;;17.70;99.90;;;;;;5073094;28;20048;-81
2021/08/30 08:22:02;;;;;;;6.90;2.90;;;17.80;99.90;;;;;;5056009;28;20147;-82
2021/08/30 08:24:31;;;;;;;6.63;2.97;;;17.90;99.90;;;;;;5065744;28;20075;-82
2021/08/30 08:27:05;;;;;;;8.50;2.95;;;18.00;99.90;;;;;;5059299;28;20101;-81
2021/08/30 08:29:36;;;;;;;8.00;3.40;;;18.10;99.90;;;;;;5056386;28;20116;-81
2021/08/30 08:32:08;;;;;;;7.18;2.92;;;18.20;99.90;;;;;;5059169;28;20155;-78
2021/08/30 08:34:42;;;;;;;7.97;2.72;;;18.30;99.90;;;;;;5067161;28;20373;-79
2021/08/30 08:37:22;;;;;;;8.63;3.15;;;18.20;99.90;;;;;;5052464;28;20037;-82
2021/08/30 08:39:52;;;;;;;11.82;3.45;;;18.30;99.90;;;;;;5068993;28;20543;-82
2021/08/30 08:42:29;;;;;;;6.00;2.78;;;18.30;99.90;;;;;;5035692;28;20048;-80
2021/08/30 08:45:13;;;;;;;6.88;2.50;;;18.30;99.90;;;;;;5039616;28;20514;-80
2021/08/30 08:48:10;;;;;;;7.47;2.70;;;18.40;99.90;;;;;;5035029;28;20471;-82
2021/08/30 08:51:13;;;;;;;5.75;2.50;;;18.40;99.90;;;;;;5019137;28;20046;-81
2021/08/30 08:53:59;;;;;;;6.35;3.30;;;18.60;99.90;;;;;;5045096;28;20048;-82
2021/08/30 08:57:05;;;;;;;6.78;2.60;;;18.60;99.90;;;;;;4938711;28;20055;-82
2021/08/30 09:00:07;;;;;;;8.57;3.10;;;18.70;99.90;;;;;;4848270;29;20060;-82
2021/08/30 09:03:09;;;;;;;;;;;;;;;;;;;;;
2021/08/30 09:06:29;;;;;;;;;;;;;;;;;;;;;
2021/08/30 09:09:31;;;;;;;9.23;2.97;;;18.90;99.90;;;;;;4870025;29;20566;-81
2021/08/30 09:12:54;;;;;;;;;;;;;;;;;;;;;
2021/08/30 09:16:29;;;;;;;;;;;;;;;;;;;;;
2021/08/30 09:19:57;;;;;;;8.23;3.63;;;19.40;99.90;;;;;;4868063;28;20058;-80
2021/08/30 09:23:13;;;;;;;;;;;;;;;;;;;;;
2021/08/30 09:43:19;;;;;;;8.25;2.53;;;19.90;99.90;;;;;;5081890;28;20393;-78
2021/08/30 09:45:46;;;;;;;5.65;2.65;;;19.90;99.90;;;;;;5074156;28;20105;-80
2021/08/30 09:48:24;;;;;;;7.30;2.92;;;19.80;99.90;;;;;;5072882;28;20044;-79
2021/08/30 09:50:51;;;;;;;5.22;2.83;;;19.80;99.90;;;;;;5082327;28;20149;-79
2021/08/30 09:53:17;;;;;;;6.45;3.03;;;19.70;99.90;;;;;;5079674;28;20041;-77
2021/08/30 09:55:45;;;;;;;8.52;2.90;;;19.70;99.90;;;;;;5082748;28;20052;-80
2021/08/30 09:58:16;;;;;;;6.32;2.75;;;19.70;99.90;;;;;;5069665;28;20091;-78
2021/08/30 10:00:46;;;;;;;8.10;2.80;;;19.80;99.90;;;;;;5083215;28;20111;-81
2021/08/30 10:03:15;;;;;;;8.32;2.58;;;19.90;99.90;;;;;;5081323;28;20044;-79
2021/08/30 10:05:42;;;;;;;7.95;2.85;;;20.00;99.90;;;;;;5085408;28;20045;-79
2021/08/30 10:08:10;;;;;;;9.57;2.72;;;20.10;99.90;;;;;;5079333;28;20051;-77
2021/08/30 10:10:37;;;;;;;6.00;3.15;;;20.20;99.90;;;;;;5082160;28;20063;-79
2021/08/30 10:13:06;;;;;;;7.00;2.97;;;20.30;99.90;;;;;;5072040;28;20055;-80
2021/08/30 10:15:33;;;;;;;7.47;2.90;;;20.30;99.90;;;;;;5072776;28;20144;-81
2021/08/30 10:18:00;;;;;;;6.85;2.63;;;20.40;99.90;;;;;;5071200;28;20440;-80
2021/08/30 10:20:34;;;;;;;5.70;2.60;;;20.50;99.90;;;;;;5084530;28;20047;-78
2021/08/30 10:23:07;;;;;;;7.05;2.80;;;20.50;99.90;;;;;;5081171;28;20106;-77
2021/08/30 10:25:36;;;;;;;5.15;2.17;;;20.50;99.90;;;;;;5076914;28;20469;-76
2021/08/30 10:28:09;;;;;;;7.20;2.58;;;20.60;99.90;;;;;;5078318;28;20052;-80
2021/08/30 10:30:39;;;;;;;6.32;2.45;;;20.60;99.90;;;;;;5080595;28;20431;-80
2021/08/30 10:33:08;;;;;;;5.50;2.53;;;20.70;99.90;;;;;;5079133;28;20489;-79
2021/08/30 10:35:38;;;;;;;5.47;2.30;;;20.80;99.90;;;;;;5085031;28;20044;-80
2021/08/30 10:38:17;;;;;;;6.82;2.67;;;20.90;99.90;;;;;;5074111;28;20047;-81
2021/08/30 10:40:53;;;;;;;4.75;2.30;;;20.90;99.90;;;;;;5078911;28;20036;-80
2021/08/30 10:43:28;;;;;;;6.57;2.30;;;21.00;99.90;;;;;;5073620;28;20046;-78
2021/08/30 10:45:58;;;;;;;5.53;2.20;;;21.00;99.90;;;;;;5069312;28;20489;-79
2021/08/30 10:48:33;;;;;;;8.65;2.33;;;21.00;99.90;;;;;;5064773;28;20450;-80
2021/08/30 10:51:13;;;;;;;9.77;2.88;;;21.10;99.90;;;;;;5066120;28;21020;-80
2021/08/30 10:53:40;;;;;;;4.43;2.40;;;21.10;99.90;;;;;;5066659;28;20044;-80
2021/08/30 10:56:10;;;;;;;5.15;2.22;;;21.20;99.90;;;;;;5068303;28;20412;-80
2021/08/30 10:58:48;;;;;;;7.32;2.58;;;21.10;99.90;;;;;;5069378;28;20098;-80
2021/08/30 11:01:15;;;;;;;4.93;2.22;;;21.10;99.90;;;;;;5069046;28;20044;-80
2021/08/30 11:03:42;;;;;;;5.70;2.42;;;21.10;99.90;;;;;;5064452;28;20048;-81
2021/08/30 11:06:11;;;;;;;3.95;2.10;;;21.00;99.90;;;;;;5061321;28;20041;-77
2021/08/30 11:08:41;;;;;;;5.22;2.40;;;21.10;99.90;;;;;;5072347;28;20049;-78
2021/08/30 11:11:22;;;;;;;3.17;2.17;;;21.10;99.90;;;;;;5068761;28;20036;-81
2021/08/30 11:14:09;;;;;;;3.65;2.10;;;21.20;99.90;;;;;;5058849;28;20044;-81
2021/08/30 11:16:38;;;;;;;5.60;2.08;;;21.30;99.90;;;;;;5063056;28;20059;-81
2021/08/30 11:19:11;;;;;;;4.03;2.25;;;21.30;99.90;;;;;;5070348;28;20048;-81
2021/08/30 11:21:39;;;;;;;2.60;1.92;;;21.40;99.90;;;;;;5058002;28;20562;-80
2021/08/30 11:24:21;;;;;;;3.35;1.80;;;21.60;99.90;;;;;;5063707;28;20041;-81
2021/08/30 11:26:49;;;;;;;3.92;1.95;;;21.70;99.90;;;;;;5065333;28;20094;-80
2021/08/30 11:29:16;;;;;;;5.78;2.00;;;21.70;99.90;;;;;;5067145;28;20480;-79
2021/08/30 11:31:43;;;;;;;4.03;1.90;;;21.70;99.90;;;;;;5059703;28;20463;-80
2021/08/30 11:34:30;;;;;;;4.57;2.20;;;21.80;99.90;;;;;;5066910;28;20143;-81
2021/08/30 11:36:59;;;;;;;4.65;2.15;;;21.90;99.90;;;;;;5056766;28;20135;-80
2021/08/30 11:39:33;;;;;;;5.47;2.42;;;21.80;99.90;;;;;;5062015;28;20048;-81
2021/08/30 11:42:05;;;;;;;7.15;2.60;;;21.80;99.90;;;;;;5068196;28;20049;-78
2021/08/30 11:44:35;;;;;;;4.70;1.85;;;21.90;99.90;;;;;;5059341;28;20385;-81
2021/08/30 11:47:07;;;;;;;6.82;1.95;;;22.00;99.90;;;;;;5059859;28;20132;-80
2021/08/30 11:49:46;;;;;;;6.90;2.40;;;22.10;99.90;;;;;;5056885;28;20387;-81
2021/08/30 11:52:16;;;;;;;3.45;1.73;;;22.00;99.90;;;;;;5066474;28;20382;-81
2021/08/30 11:54:54;;;;;;;4.95;2.35;;;22.00;99.90;;;;;;5070973;28;20473;-79
2021/08/30 11:57:22;;;;;;;3.58;1.80;;;22.00;99.90;;;;;;5056160;28;20044;-81
2021/08/30 11:59:53;;;;;;;3.80;1.80;;;22.10;99.90;;;;;;5071433;28;20059;-80
2021/08/30 12:02:21;;;;;;;3.60;1.83;;;22.10;99.90;;;;;;5062126;28;20048;-81
2021/08/30 12:04:48;;;;;;;3.72;1.90;;;22.10;99.90;;;;;;5069950;28;20055;-81
2021/08/30 12:07:17;;;;;;;3.65;1.80;;;22.30;99.90;;;;;;5067998;28;20427;-81
2021/08/30 12:09:50;;;;;;;;;;;22.40;99.90;;;;;;5069380;28;20303;-81
2021/08/30 12:12:28;;;;;;;4.63;1.75;;;22.40;99.90;;;;;;5061155;28;19920;-80
2021/08/30 12:15:06;;;;;;;4.90;1.85;;;22.40;99.90;;;;;;5068760;28;20050;-79
2021/08/30 12:17:43;;;;;;;3.95;1.70;;;22.30;99.90;;;;;;5067339;28;20480;-81
2021/08/30 12:20:17;;;;;;;4.47;2.25;;;22.30;99.90;;;;;;5069174;28;20056;-80
2021/08/30 12:22:54;;;;;;;3.22;1.90;;;22.30;99.90;;;;;;5070712;28;20044;-81
2021/08/30 12:25:27;;;;;;;3.30;1.70;;;22.30;99.90;;;;;;5061065;28;20049;-81
2021/08/30 12:27:55;;;;;;;3.30;1.90;;;22.40;99.90;;;;;;5070356;28;20396;-81
2021/08/30 12:30:26;;;;;;;3.80;1.87;;;22.50;99.90;;;;;;5069351;28;20052;-82
2021/08/30 12:32:58;;;;;;;3.22;1.73;;;22.50;99.90;;;;;;5071008;28;20294;-79
2021/08/30 12:35:32;;;;;;;3.83;1.65;;;22.60;99.90;;;;;;5085523;28;20048;-80
2021/08/30 12:38:08;;;;;;;3.92;1.80;;;22.50;99.90;;;;;;5070084;28;20362;-82
2021/08/30 12:40:37;;;;;;;2.80;1.80;;;22.50;99.90;;;;;;5068960;28;20052;-79
2021/08/30 12:43:05;;;;;;;5.40;2.08;;;22.50;99.90;;;;;;5068991;28;20131;-77
2021/08/30 12:45:32;;;;;;;3.42;1.83;;;22.50;99.90;;;;;;5070217;28;20448;-81
2021/08/30 12:48:05;;;;;;;3.95;1.85;;;22.60;99.90;;;;;;5061167;28;20515;-80
2021/08/30 12:50:43;;;;;;;4.00;2.25;;;22.60;99.90;;;;;;5065764;28;20060;-81
2021/08/30 12:53:11;;;;;;;3.33;1.90;;;22.50;99.90;;;;;;5052299;28;20480;-79
2021/08/30 12:55:39;;;;;;;2.13;1.75;;;22.50;99.90;;;;;;5060221;28;20052;-79
2021/08/30 12:58:08;;;;;;;3.30;1.55;;;22.50;99.90;;;;;;5069569;28;20131;-81
2021/08/30 13:00:39;;;;;;;3.67;1.75;;;22.50;99.90;;;;;;5060865;28;20044;-81
2021/08/30 13:03:07;;;;;;;6.30;2.40;;;22.50;99.90;;;;;;5061590;28;20374;-82
2021/08/30 13:05:39;;;;;;;3.30;1.85;;;22.60;99.90;;;;;;5063930;28;20062;-80
2021/08/30 13:08:07;;;;;;;4.75;1.92;;;22.70;99.90;;;;;;5069458;28;20481;-81
2021/08/30 13:10:34;;;;;;;4.22;2.20;;;22.70;99.90;;;;;;5069900;28;20045;-81
2021/08/30 13:13:16;;;;;;;3.80;2.20;;;22.60;99.90;;;;;;5068811;28;20127;-82
2021/08/30 13:15:48;;;;;;;4.55;1.90;;;22.70;99.90;;;;;;5069870;28;20036;-80
2021/08/30 13:18:17;;;;;;;2.72;1.77;;;22.60;99.90;;;;;;5070497;28;20041;-80
2021/08/30 13:20:49;;;;;;;4.05;2.03;;;22.70;99.90;;;;;;5070562;28;20063;-81
2021/08/30 13:23:20;;;;;;;5.03;2.05;;;22.80;99.90;;;;;;5068407;28;20048;-78
2021/08/30 13:26:06;;;;;;;4.72;2.25;;;22.90;99.90;;;;;;5060867;28;20055;-81
2021/08/30 13:28:33;;;;;;;4.57;2.25;;;22.90;99.90;;;;;;5062586;28;20063;-81
2021/08/30 13:31:00;;;;;;;4.28;1.90;;;22.80;99.90;;;;;;5067076;28;20048;-80